CFX8 weather

Chestermere (Kirkby Field) Airport
Chestermere, Alberta, Canada

Public forecast

Using degrees Celsius for public forecast. Weather courtesy of forecast.io.

Closest aviation weather report (METAR) to Chestermere (Kirkby Field) Airport

Closest report is Calgary International Airport, 11.0 nm (20.4 km) WNW. Retrieved 2019/12/08 20:00 UTC (45 minutes ago):

CYYC 082000Z 22004KT 7SM FEW140 M10/M13 A2988 RMK AC1 AC TR SLP195

Closest aviation forecast (TAF) to Chestermere (Kirkby Field) Airport

Closest forecast is Calgary International Airport, 11.0 nm (20.4 km) WNW. Retrieved 2019/12/08 21:40 UTC (0 seconds ago):

TAF CYYC 082038Z 0821/0918 22008KT P6SM FEW140 BECMG 0822/0824 30010KT FM090300 28010KT P6SM SCT060 OVC120 FM091600 32008KT P6SM -SN SCT015 OVC040 TEMPO 0916/0918 2SM -SN OVC015 RMK NXT FCST BY 090000Z